Time;durP1;ratioP1;P1;durP2;ratioP2;P2;SDS_P1;SDS_P2;PMS_P1;PMS_P2;Temp;Humidity;BMP_temperature;BMP_pressure;BME280_temperature;BME280_humidity;BME280_pressure;Samples;Min_cycle;Max_cycle;Signal;HPM_P1;HPM_P2
2021/04/10 00:02:01;;;;;;;5.05;4.60;;;;;;;;;;10238165;29;20047;-85
2021/04/10 00:07:22;;;;;;;4.70;4.20;;;;;;;;;;10553674;22;20105;-86
2021/04/10 00:12:25;;;;;;;4.30;3.88;;;;;;;;;;10532683;28;20031;-86
2021/04/10 00:17:26;;;;;;;6.13;4.75;;;;;;;;;;10585446;28;20031;-84
2021/04/10 00:22:27;;;;;;;7.68;5.75;;;;;;;;;;10585478;28;20027;-86
2021/04/10 00:27:28;;;;;;;6.30;5.70;;;;;;;;;;10611621;28;20035;-87
2021/04/10 00:32:29;;;;;;;4.90;4.50;;;;;;;;;;10623974;28;20064;-87
2021/04/10 00:37:30;;;;;;;5.70;4.45;;;;;;;;;;10586122;28;20119;-86
2021/04/10 00:42:31;;;;;;;5.28;4.88;;;;;;;;;;10610831;28;20034;-86
2021/04/10 00:47:33;;;;;;;5.28;4.78;;;;;;;;;;10584392;28;20035;-86
2021/04/10 00:52:36;;;;;;;5.15;4.65;;;;;;;;;;10600342;28;20032;-86
2021/04/10 00:57:42;;;;;;;4.90;4.40;;;;;;;;;;10597370;28;20065;-84
2021/04/10 01:02:45;;;;;;;4.85;4.45;;;;;;;;;;10616715;28;20039;-84
2021/04/10 01:07:46;;;;;;;5.28;4.78;;;;;;;;;;10569356;28;20031;-86
2021/04/10 01:13:09;;;;;;;5.60;5.10;;;;;;;;;;10575927;28;20493;-86
2021/04/10 01:18:25;;;;;;;5.82;5.32;;;;;;;;;;10579941;28;20020;-85
2021/04/10 01:23:44;;;;;;;5.88;5.25;;;;;;;;;;10582040;28;20397;-85
2021/04/10 01:28:52;;;;;;;4.10;3.78;;;;;;;;;;10583536;28;20024;-85
2021/04/10 01:33:58;;;;;;;6.65;6.05;;;;;;;;;;10579824;28;20396;-84
2021/04/10 01:39:00;;;;;;;5.88;5.38;;;;;;;;;;10572098;28;20524;-86
2021/04/10 01:44:07;;;;;;;5.35;4.88;;;;;;;;;;10569150;28;20496;-85
2021/04/10 01:49:08;;;;;;;7.10;6.47;;;;;;;;;;10568361;28;20032;-85
2021/04/10 01:54:10;;;;;;;4.85;4.45;;;;;;;;;;10569078;28;20389;-85
2021/04/10 01:59:19;;;;;;;5.50;5.03;;;;;;;;;;10569531;28;20023;-86
2021/04/10 02:04:24;;;;;;;6.78;6.18;;;;;;;;;;10592750;28;20468;-86
2021/04/10 02:09:25;;;;;;;6.20;5.60;;;;;;;;;;10570925;28;20028;-86
2021/04/10 02:14:28;;;;;;;6.93;6.28;;;;;;;;;;10576994;28;20016;-85
2021/04/10 02:19:29;;;;;;;6.85;6.15;;;;;;;;;;10577910;28;20068;-84
2021/04/10 02:24:30;;;;;;;5.97;5.47;;;;;;;;;;10596431;28;20045;-85
2021/04/10 02:29:31;;;;;;;6.93;6.32;;;;;;;;;;10591895;28;20048;-87
2021/04/10 02:34:45;;;;;;;7.15;6.55;;;;;;;;;;10576969;28;20028;-84
2021/04/10 02:39:47;;;;;;;6.40;5.88;;;;;;;;;;10595437;28;20151;-85
2021/04/10 02:44:50;;;;;;;5.80;5.22;;;;;;;;;;10577155;28;20031;-85
2021/04/10 02:49:56;;;;;;;5.18;4.72;;;;;;;;;;10578449;28;20027;-85
2021/04/10 02:54:57;;;;;;;7.22;6.53;;;;;;;;;;10578958;28;20477;-86
2021/04/10 03:00:06;;;;;;;9.35;8.55;;;;;;;;;;10576292;28;20019;-86
2021/04/10 03:05:12;;;;;;;6.97;5.85;;;;;;;;;;10590806;28;20042;-86
2021/04/10 03:10:14;;;;;;;10.60;9.60;;;;;;;;;;10557305;28;20055;-85
2021/04/10 03:15:16;;;;;;;7.63;6.93;;;;;;;;;;10585577;28;20036;-84
2021/04/10 03:20:21;;;;;;;7.15;6.45;;;;;;;;;;10608934;28;20019;-86
2021/04/10 03:25:23;;;;;;;7.40;6.72;;;;;;;;;;10608582;28;20024;-86
2021/04/10 03:30:24;;;;;;;9.05;8.15;;;;;;;;;;10569961;28;20023;-86
2021/04/10 03:35:28;;;;;;;8.05;7.07;;;;;;;;;;10593465;28;20039;-86
2021/04/10 03:40:30;;;;;;;8.77;7.68;;;;;;;;;;10569199;28;20042;-85
2021/04/10 03:45:33;;;;;;;6.20;5.70;;;;;;;;;;10599978;28;20107;-85
2021/04/10 03:50:34;;;;;;;6.13;5.53;;;;;;;;;;10580137;28;20123;-85
2021/04/10 03:55:35;;;;;;;8.85;7.95;;;;;;;;;;10582613;28;20028;-85
2021/04/10 04:00:39;;;;;;;6.05;5.55;;;;;;;;;;10617312;28;20026;-86
2021/04/10 04:05:40;;;;;;;8.57;7.78;;;;;;;;;;10606830;28;20089;-85
2021/04/10 04:10:42;;;;;;;6.75;6.20;;;;;;;;;;10584511;28;20027;-86
2021/04/10 04:15:44;;;;;;;6.88;6.28;;;;;;;;;;10583955;28;20031;-85
2021/04/10 04:20:46;;;;;;;6.35;5.78;;;;;;;;;;10590868;28;20031;-84
2021/04/10 04:25:47;;;;;;;8.57;7.72;;;;;;;;;;10617436;28;20039;-86
2021/04/10 04:30:48;;;;;;;8.77;7.95;;;;;;;;;;10587763;28;20062;-84
2021/04/10 04:35:57;;;;;;;7.93;6.72;;;;;;;;;;10580934;28;20028;-86
2021/04/10 04:40:58;;;;;;;6.00;5.45;;;;;;;;;;10579945;28;20100;-85
2021/04/10 04:45:59;;;;;;;7.65;6.95;;;;;;;;;;10579952;28;20032;-85
2021/04/10 04:51:02;;;;;;;9.38;8.57;;;;;;;;;;10580722;28;20039;-85
2021/04/10 04:56:03;;;;;;;7.22;6.50;;;;;;;;;;10563052;28;20397;-85
2021/04/10 05:01:04;;;;;;;7.45;6.68;;;;;;;;;;10579710;28;20488;-86
2021/04/10 05:06:08;;;;;;;7.60;6.90;;;;;;;;;;10578424;28;20118;-86
2021/04/10 05:11:09;;;;;;;6.85;6.20;;;;;;;;;;10596987;28;20048;-85
2021/04/10 05:16:10;;;;;;;7.22;6.20;;;;;;;;;;10579625;28;20470;-86
2021/04/10 05:21:11;;;;;;;9.60;8.70;;;;;;;;;;10580452;28;20020;-85
2021/04/10 05:26:13;;;;;;;6.95;6.25;;;;;;;;;;10596544;28;20027;-85
2021/04/10 05:31:15;;;;;;;9.27;8.13;;;;;;;;;;10575272;28;20042;-86
2021/04/10 05:36:16;;;;;;;6.30;5.70;;;;;;;;;;10562130;28;20489;-85
2021/04/10 05:41:17;;;;;;;10.10;9.02;;;;;;;;;;10579638;28;20073;-84
2021/04/10 05:46:18;;;;;;;6.20;5.60;;;;;;;;;;10579795;28;20024;-85
2021/04/10 05:51:19;;;;;;;7.75;6.95;;;;;;;;;;10578703;28;20019;-85
2021/04/10 05:56:20;;;;;;;4.95;4.45;;;;;;;;;;10579461;28;20119;-88
2021/04/10 06:01:26;;;;;;;5.53;4.95;;;;;;;;;;10579752;28;20071;-85
2021/04/10 06:17:43;;;;;;;6.90;5.28;;;;;;;;;;10598887;28;20069;-86
2021/04/10 06:23:01;;;;;;;4.85;3.70;;;;;;;;;;10627270;28;20028;-86
2021/04/10 08:50:02;;;;;;;4.70;4.00;;;;;;;;;;10608414;28;20042;-87
2021/04/10 08:55:10;;;;;;;7.07;4.28;;;;;;;;;;10605575;28;20036;-86
2021/04/10 09:00:19;;;;;;;11.13;9.82;;;;;;;;;;10602103;28;20027;-86
2021/04/10 09:05:35;;;;;;;5.32;3.70;;;;;;;;;;10607220;28;20103;-87
2021/04/10 09:10:40;;;;;;;6.82;5.13;;;;;;;;;;10621166;28;20039;-86
2021/04/10 09:15:41;;;;;;;8.35;7.40;;;;;;;;;;10621754;27;20123;-87
2021/04/10 09:20:45;;;;;;;7.85;5.38;;;;;;;;;;10605583;28;20054;-87
2021/04/10 09:25:46;;;;;;;6.95;6.00;;;;;;;;;;10609391;28;20103;-87
2021/04/10 09:30:47;;;;;;;10.35;8.52;;;;;;;;;;10603397;28;20489;-86
2021/04/10 09:35:48;;;;;;;7.65;5.97;;;;;;;;;;10599393;28;20035;-87
2021/04/10 09:40:50;;;;;;;9.20;7.28;;;;;;;;;;10600342;28;20035;-85
2021/04/10 09:45:51;;;;;;;6.80;5.55;;;;;;;;;;10600930;28;20039;-84
2021/04/10 09:50:52;;;;;;;7.18;5.65;;;;;;;;;;10602989;28;20050;-87
2021/04/10 09:55:58;;;;;;;7.88;6.53;;;;;;;;;;10603658;28;20054;-86
2021/04/10 10:01:02;;;;;;;8.75;6.60;;;;;;;;;;10602350;28;20028;-84
2021/04/10 10:06:03;;;;;;;9.20;8.27;;;;;;;;;;10602018;28;20065;-85
2021/04/10 10:11:08;;;;;;;8.52;5.43;;;;;;;;;;10600319;28;20027;-87
2021/04/10 10:16:15;;;;;;;8.35;6.63;;;;;;;;;;10602331;28;20039;-86
2021/04/10 10:21:19;;;;;;;8.52;5.65;;;;;;;;;;10619936;28;20483;-87
2021/04/10 10:26:21;;;;;;;12.10;9.45;;;;;;;;;;10625485;28;20036;-86
2021/04/10 10:31:23;;;;;;;7.78;6.97;;;;;;;;;;10624050;28;20036;-86
2021/04/10 10:36:32;;;;;;;9.65;8.45;;;;;;;;;;10617160;28;20031;-84
2021/04/10 10:41:43;;;;;;;9.13;7.40;;;;;;;;;;10613160;28;20040;-87
2021/04/10 10:46:45;;;;;;;8.45;6.43;;;;;;;;;;10617335;28;20058;-86
2021/04/10 10:51:45;;;;;;;7.32;5.72;;;;;;;;;;10608521;28;20039;-86
2021/04/10 10:56:48;;;;;;;9.15;8.15;;;;;;;;;;10614198;28;20374;-86
2021/04/10 11:01:49;;;;;;;9.77;7.18;;;;;;;;;;10612190;28;20059;-86
2021/04/10 11:07:00;;;;;;;9.15;7.85;;;;;;;;;;10625237;28;20042;-86
2021/04/10 11:12:05;;;;;;;11.52;10.48;;;;;;;;;;10608623;28;20040;-85
2021/04/10 11:17:06;;;;;;;7.43;5.78;;;;;;;;;;10611147;28;20031;-85
2021/04/10 11:22:08;;;;;;;9.70;6.88;;;;;;;;;;10616533;28;20036;-84
2021/04/10 11:27:32;;;;;;;10.63;8.80;;;;;;;;;;10625373;28;20055;-85
2021/04/10 11:32:36;;;;;;;9.60;7.28;;;;;;;;;;10623033;28;20095;-86
2021/04/10 11:37:38;;;;;;;8.63;6.85;;;;;;;;;;10624578;28;20038;-86
2021/04/10 11:42:43;;;;;;;11.07;8.55;;;;;;;;;;10623836;28;20032;-85
2021/04/10 11:47:45;;;;;;;6.32;5.63;;;;;;;;;;10623490;28;20035;-85
2021/04/10 11:52:46;;;;;;;9.13;7.75;;;;;;;;;;10624677;28;20044;-85
2021/04/10 11:57:57;;;;;;;5.85;5.13;;;;;;;;;;10623794;28;20050;-87
2021/04/10 12:03:26;;;;;;;;;;;;;;;;;;;;;
2021/04/10 12:08:30;;;;;;;11.70;10.50;;;;;;;;;;10652799;22;20044;-89
2021/04/10 12:13:38;;;;;;;11.80;9.82;;;;;;;;;;10533691;28;20051;-88
2021/04/10 12:18:54;;;;;;;8.32;7.53;;;;;;;;;;10551855;28;20031;-88
2021/04/10 12:24:11;;;;;;;11.32;10.15;;;;;;;;;;10553320;28;20028;-88
2021/04/10 12:29:15;;;;;;;9.80;8.55;;;;;;;;;;10551727;28;20055;-87
2021/04/10 12:34:16;;;;;;;8.07;7.30;;;;;;;;;;10517262;28;20467;-88
2021/04/10 12:39:18;;;;;;;8.73;7.53;;;;;;;;;;10533031;28;20066;-88
2021/04/10 12:44:24;;;;;;;9.75;7.57;;;;;;;;;;10549481;28;20040;-88
2021/04/10 12:49:25;;;;;;;10.35;9.07;;;;;;;;;;10553972;28;20096;-88
2021/04/10 12:54:32;;;;;;;8.38;6.60;;;;;;;;;;10536957;28;20081;-88
2021/04/10 12:59:54;;;;;;;11.88;9.85;;;;;;;;;;10533919;28;20024;-88
2021/04/10 13:05:02;;;;;;;12.02;10.48;;;;;;;;;;10533070;28;20032;-88
2021/04/10 13:10:06;;;;;;;11.18;9.02;;;;;;;;;;10531192;28;20050;-87
2021/04/10 13:15:09;;;;;;;12.38;11.07;;;;;;;;;;10525661;28;20494;-88
2021/04/10 13:20:11;;;;;;;11.13;9.55;;;;;;;;;;10528926;28;20032;-87
2021/04/10 13:25:12;;;;;;;8.27;6.95;;;;;;;;;;10529844;28;20127;-86
2021/04/10 13:30:14;;;;;;;9.95;8.88;;;;;;;;;;10529048;28;20094;-88
2021/04/10 13:35:15;;;;;;;12.93;10.93;;;;;;;;;;10531004;28;20097;-87
2021/04/10 13:40:16;;;;;;;13.70;12.25;;;;;;;;;;10551895;28;20035;-86
2021/04/10 13:45:17;;;;;;;9.68;8.77;;;;;;;;;;10552072;28;20469;-87
2021/04/10 13:50:18;;;;;;;6.43;5.80;;;;;;;;;;10539054;28;20036;-87
2021/04/10 13:55:19;;;;;;;12.73;11.40;;;;;;;;;;10549655;28;20040;-87
2021/04/10 14:00:20;;;;;;;9.88;7.88;;;;;;;;;;10543868;28;20060;-88
2021/04/10 14:05:22;;;;;;;12.85;10.90;;;;;;;;;;10527454;28;20489;-87
2021/04/10 14:10:23;;;;;;;9.95;8.25;;;;;;;;;;10527688;28;20066;-87
2021/04/10 14:15:29;;;;;;;8.68;7.88;;;;;;;;;;10524793;28;20043;-88
2021/04/10 14:20:32;;;;;;;8.82;7.93;;;;;;;;;;10524487;28;20047;-87
2021/04/10 14:25:34;;;;;;;10.30;9.10;;;;;;;;;;10524120;28;20492;-87
2021/04/10 14:30:36;;;;;;;9.57;8.63;;;;;;;;;;10525314;28;20482;-88
2021/04/10 14:35:39;;;;;;;10.27;9.18;;;;;;;;;;10524977;28;20054;-87
2021/04/10 14:40:40;;;;;;;7.45;6.60;;;;;;;;;;10526439;28;20096;-88
2021/04/10 14:45:42;;;;;;;8.48;6.53;;;;;;;;;;10528699;28;20551;-87
2021/04/10 14:50:44;;;;;;;7.97;6.82;;;;;;;;;;10544291;28;20191;-89
2021/04/10 14:55:46;;;;;;;11.98;10.77;;;;;;;;;;10559030;28;20070;-88
2021/04/10 15:00:47;;;;;;;9.98;8.63;;;;;;;;;;10538515;28;20126;-87
2021/04/10 15:05:51;;;;;;;11.57;10.38;;;;;;;;;;10528966;28;20097;-86
2021/04/10 15:10:53;;;;;;;10.70;9.70;;;;;;;;;;10522763;28;20051;-87
2021/04/10 15:15:58;;;;;;;7.97;6.60;;;;;;;;;;10523169;28;20078;-86
2021/04/10 15:20:59;;;;;;;10.98;9.80;;;;;;;;;;10530885;28;20038;-87
2021/04/10 15:26:00;;;;;;;12.02;10.82;;;;;;;;;;10557580;28;20036;-86
2021/04/10 15:31:04;;;;;;;10.27;9.30;;;;;;;;;;10568281;28;20062;-85
2021/04/10 15:36:05;;;;;;;10.43;9.35;;;;;;;;;;10569275;28;20028;-86
2021/04/10 15:41:06;;;;;;;9.68;8.75;;;;;;;;;;10560361;28;20091;-86
2021/04/10 15:46:08;;;;;;;7.68;6.97;;;;;;;;;;10574199;28;20039;-87
2021/04/10 15:51:09;;;;;;;14.07;12.65;;;;;;;;;;10541937;28;20058;-87
2021/04/10 15:56:11;;;;;;;12.05;10.95;;;;;;;;;;10535120;28;20032;-88
2021/04/10 16:01:12;;;;;;;16.02;14.52;;;;;;;;;;10537981;28;20068;-87
2021/04/10 16:06:13;;;;;;;12.40;11.18;;;;;;;;;;10534326;28;20028;-88
2021/04/10 16:11:14;;;;;;;14.85;13.45;;;;;;;;;;10532829;28;20039;-87
2021/04/10 16:16:15;;;;;;;10.68;9.68;;;;;;;;;;10533084;28;20028;-88
2021/04/10 16:21:16;;;;;;;13.85;12.45;;;;;;;;;;10531135;28;20114;-87
2021/04/10 16:26:17;;;;;;;10.63;9.52;;;;;;;;;;10531261;28;20047;-86
2021/04/10 16:31:18;;;;;;;16.15;14.50;;;;;;;;;;10529754;28;20036;-87
2021/04/10 16:36:19;;;;;;;9.60;8.80;;;;;;;;;;10529056;28;20035;-87
2021/04/10 16:41:20;;;;;;;18.83;17.08;;;;;;;;;;10547175;28;20099;-87
2021/04/10 16:46:21;;;;;;;14.70;13.32;;;;;;;;;;10531150;28;20036;-87
2021/04/10 16:51:22;;;;;;;14.55;13.32;;;;;;;;;;10529327;28;20117;-88
2021/04/10 16:56:24;;;;;;;26.90;24.55;;;;;;;;;;10528540;28;20397;-88
2021/04/10 17:01:25;;;;;;;20.73;18.83;;;;;;;;;;10534774;28;20113;-88
2021/04/10 17:06:26;;;;;;;10.80;9.80;;;;;;;;;;10556621;28;20040;-88
2021/04/10 17:11:26;;;;;;;18.35;16.75;;;;;;;;;;10544784;28;20079;-87
2021/04/10 17:16:27;;;;;;;12.80;11.50;;;;;;;;;;10527414;28;20032;-88
2021/04/10 17:21:29;;;;;;;14.23;13.00;;;;;;;;;;10527350;28;20068;-88
2021/04/10 17:26:32;;;;;;;11.73;10.63;;;;;;;;;;10527605;28;20216;-88
2021/04/10 17:31:33;;;;;;;12.20;11.10;;;;;;;;;;10528661;28;20064;-87
2021/04/10 17:36:34;;;;;;;8.48;7.75;;;;;;;;;;10528159;28;20036;-88
2021/04/10 17:41:36;;;;;;;9.50;8.60;;;;;;;;;;10524371;28;20028;-88
2021/04/10 17:46:37;;;;;;;7.15;6.45;;;;;;;;;;10525297;28;20032;-88
2021/04/10 17:51:38;;;;;;;9.40;8.60;;;;;;;;;;10525800;28;20032;-86
2021/04/10 17:56:39;;;;;;;7.63;6.93;;;;;;;;;;10527633;28;20127;-87
2021/04/10 18:01:40;;;;;;;6.20;5.70;;;;;;;;;;10530352;28;20071;-87
2021/04/10 18:06:41;;;;;;;6.88;6.18;;;;;;;;;;10534916;28;20100;-87
2021/04/10 18:11:44;;;;;;;9.75;8.93;;;;;;;;;;10533751;22;20060;-88
